createdAt,value
2016-03-12T14:25:51.810Z,959.38
2016-03-12T14:26:51.799Z,959.42
2016-03-12T14:27:51.802Z,959.39
2016-03-12T14:28:51.794Z,959.44
2016-03-12T14:29:51.792Z,959.37
2016-03-12T14:30:51.790Z,959.45
2016-03-12T14:31:51.804Z,959.39
2016-03-12T14:32:51.801Z,959.41
2016-03-12T14:33:51.800Z,959.42
2016-03-12T14:34:51.848Z,959.47
2016-03-12T14:35:51.818Z,959.44
2016-03-12T14:36:51.833Z,959.41
2016-03-12T14:37:51.834Z,959.44
2016-03-12T14:38:51.836Z,959.44
2016-03-12T14:39:51.854Z,959.48
2016-03-12T14:40:51.871Z,959.48
2016-03-12T14:41:51.888Z,959.52
2016-03-12T14:42:51.875Z,959.47
2016-03-12T14:43:51.892Z,959.52
2016-03-12T14:44:51.911Z,959.51
2016-03-12T14:45:51.929Z,959.48
2016-03-12T14:46:51.931Z,959.5
2016-03-12T14:47:51.949Z,959.5
2016-03-12T14:48:51.951Z,959.54
2016-03-12T14:49:51.970Z,959.5
2016-03-12T14:50:51.973Z,959.5
2016-03-12T14:51:51.991Z,959.48
2016-03-12T14:52:52.009Z,959.52
2016-03-12T14:53:52.028Z,959.52
2016-03-12T14:54:52.031Z,959.47
2016-03-12T14:55:52.048Z,959.5
2016-03-12T14:56:52.051Z,959.54
2016-03-12T14:57:52.070Z,959.51
2016-03-12T14:58:52.087Z,959.5
2016-03-12T14:59:52.090Z,959.5
2016-03-12T15:00:52.109Z,959.49
2016-03-12T15:01:52.127Z,959.45
2016-03-12T15:02:52.129Z,959.51
2016-03-12T15:03:52.147Z,959.49
2016-03-12T15:04:52.166Z,959.53
2016-03-12T15:05:52.169Z,959.5
2016-03-12T15:06:52.187Z,959.5
2016-03-12T15:07:52.191Z,959.52
2016-03-12T15:08:52.208Z,959.51
2016-03-12T15:09:52.226Z,959.53
2016-03-12T15:10:52.244Z,959.49
2016-03-12T15:11:52.263Z,959.48
2016-03-12T15:12:52.266Z,959.47
2016-03-12T15:13:52.284Z,959.43
2016-03-12T15:14:52.302Z,959.49
2016-03-12T15:15:52.305Z,959.51
2016-03-12T15:16:52.307Z,959.51
2016-03-12T15:17:52.327Z,959.5
2016-03-12T15:18:52.345Z,959.5
2016-03-12T15:19:52.363Z,959.47
2016-03-12T15:20:52.381Z,959.52
2016-03-12T15:21:52.384Z,959.49
2016-03-12T15:22:52.402Z,959.46
2016-03-12T15:23:52.420Z,959.48
2016-03-12T15:24:52.454Z,959.49
2016-03-12T15:25:52.441Z,959.5
2016-03-12T15:26:52.460Z,959.52
2016-03-12T15:27:52.478Z,959.48
2016-03-12T15:28:52.481Z,959.53
2016-03-12T15:29:52.500Z,959.53
2016-03-12T15:30:52.517Z,959.52
2016-03-12T15:31:52.520Z,959.52
2016-03-12T15:32:52.538Z,959.53
2016-03-12T15:33:52.541Z,959.51
2016-03-12T15:34:52.575Z,959.53
2016-03-12T15:35:52.578Z,959.51
2016-03-12T15:36:52.596Z,959.46
2016-03-12T15:37:52.599Z,959.51
2016-03-12T15:38:52.617Z,959.54
2016-03-12T15:39:52.635Z,959.52
2016-03-12T15:40:52.654Z,959.52
2016-03-12T15:41:52.657Z,959.5
2016-03-12T15:42:52.674Z,959.52
2016-03-12T15:43:52.693Z,959.53
2016-03-12T15:44:52.711Z,959.5
2016-03-12T15:45:52.714Z,959.49
2016-03-12T15:46:52.732Z,959.57
2016-03-12T15:47:52.751Z,959.56
2016-03-12T15:48:52.769Z,959.55
2016-03-12T15:49:52.771Z,959.59
2016-03-12T15:50:52.790Z,959.56
2016-03-12T15:51:52.808Z,959.58
2016-03-12T15:52:52.812Z,959.61
2016-03-12T15:53:52.829Z,959.62
2016-03-12T15:54:52.848Z,959.65
2016-03-12T15:55:52.851Z,959.62
2016-03-12T15:56:52.868Z,959.61
2016-03-12T15:57:52.887Z,959.65
2016-03-12T15:58:52.889Z,959.63
2016-03-12T15:59:52.908Z,959.62
2016-03-12T16:00:52.926Z,959.59
2016-03-12T16:01:52.945Z,959.57
2016-03-12T16:02:52.963Z,959.64
2016-03-12T16:03:52.966Z,959.65
2016-03-12T16:04:52.984Z,959.7
2016-03-12T16:05:53.002Z,959.64
2016-03-12T16:06:53.005Z,959.63
2016-03-12T16:07:53.023Z,959.7
2016-03-12T16:08:53.041Z,959.67
2016-03-12T16:09:53.044Z,959.65
2016-03-12T16:10:53.063Z,959.72
2016-03-12T16:11:53.080Z,959.65
2016-03-12T16:12:53.099Z,959.69
2016-03-12T16:13:53.101Z,959.72
2016-03-12T16:14:53.121Z,959.7
2016-03-12T16:15:53.154Z,959.74
2016-03-12T16:16:53.141Z,959.8
2016-03-12T16:17:53.160Z,959.74
2016-03-12T16:18:53.177Z,959.75
2016-03-12T16:19:53.180Z,959.74
2016-03-12T16:20:53.199Z,959.8
2016-03-12T16:21:53.201Z,959.74
2016-03-12T16:22:53.235Z,959.78
2016-03-12T16:23:53.238Z,959.78
2016-03-12T16:24:53.288Z,959.78
2016-03-12T16:25:53.259Z,959.75
2016-03-12T16:26:53.278Z,959.8
2016-03-12T16:27:53.295Z,959.8
2016-03-12T16:28:53.315Z,959.83
2016-03-12T16:29:53.317Z,959.79
2016-03-12T16:30:53.334Z,959.81
2016-03-12T16:31:53.337Z,959.82
2016-03-12T16:32:53.356Z,959.81
2016-03-12T16:33:53.375Z,959.82
2016-03-12T16:34:53.392Z,959.84
2016-03-12T16:35:53.395Z,959.85
2016-03-12T16:36:53.430Z,959.82
2016-03-12T16:37:53.433Z,959.83
2016-03-12T16:38:53.435Z,959.81
2016-03-12T16:39:53.453Z,959.84
2016-03-12T16:40:53.455Z,959.83
2016-03-12T16:41:53.475Z,959.86
2016-03-12T16:42:53.492Z,959.83
2016-03-12T16:43:53.495Z,959.83
2016-03-12T16:44:53.513Z,959.82
2016-03-12T16:45:53.532Z,959.83
2016-03-12T16:46:53.550Z,959.85
2016-03-12T16:47:53.552Z,959.89
2016-03-12T16:48:53.571Z,959.87
2016-03-12T16:49:53.590Z,959.85
2016-03-12T16:50:53.686Z,959.86
2016-03-12T16:51:53.610Z,959.87
2016-03-12T16:52:53.628Z,959.91
2016-03-12T16:53:53.632Z,959.88
2016-03-12T16:54:53.649Z,959.89
2016-03-12T16:55:53.667Z,959.9
2016-03-12T16:56:53.671Z,959.86
2016-03-12T16:57:53.689Z,959.88
2016-03-12T16:58:53.707Z,959.91
2016-03-12T16:59:53.710Z,959.92
2016-03-12T17:00:53.728Z,959.92
2016-03-12T17:01:53.731Z,959.93
2016-03-12T17:02:53.750Z,959.95
2016-03-12T17:03:53.767Z,959.93
2016-03-12T17:04:53.786Z,959.93
2016-03-12T17:05:53.789Z,959.96
2016-03-12T17:06:53.806Z,959.94
2016-03-12T17:07:53.826Z,959.98
2016-03-12T17:08:53.828Z,959.99
2016-03-12T17:09:53.846Z,960
2016-03-12T17:10:53.849Z,959.98
2016-03-12T17:11:53.867Z,959.99
2016-03-12T17:12:53.901Z,959.97
2016-03-12T17:13:53.888Z,960.02
2016-03-12T17:14:53.907Z,960.04
2016-03-12T17:15:53.925Z,960.04
2016-03-12T17:16:53.928Z,960.01
2016-03-12T17:17:53.946Z,960.02
2016-03-12T17:18:53.964Z,960.02
2016-03-12T17:19:53.983Z,960.03
2016-03-12T17:20:53.985Z,960.06
2016-03-12T17:21:54.003Z,960.05
2016-03-12T17:22:54.007Z,960.08
2016-03-12T17:23:54.024Z,960.06
2016-03-12T17:24:54.043Z,960.08
2016-03-12T17:25:54.046Z,960.11
2016-03-12T17:26:54.064Z,960.12
2016-03-12T17:27:54.067Z,960.14
2016-03-12T17:28:54.085Z,960.13
2016-03-12T17:29:54.103Z,960.16
2016-03-12T17:30:54.105Z,960.15
2016-03-12T17:31:54.124Z,960.18
2016-03-12T17:32:54.142Z,960.2
2016-03-12T17:33:54.145Z,960.18
2016-03-12T17:34:54.195Z,960.21
2016-03-12T17:35:54.181Z,960.25
2016-03-12T17:36:54.184Z,960.26
2016-03-12T17:37:54.203Z,960.24
2016-03-12T17:38:54.221Z,960.26
2016-03-12T17:39:54.255Z,960.24
2016-03-12T17:40:54.242Z,960.27
2016-03-12T17:41:54.260Z,960.24
2016-03-12T17:42:54.264Z,960.15
2016-03-12T17:43:54.281Z,960.3
2016-03-12T17:44:54.283Z,960.29
2016-03-12T17:45:54.319Z,960.27
2016-03-12T17:46:54.321Z,960.33
2016-03-12T17:47:54.323Z,960.31
2016-03-12T17:48:54.342Z,960.37
2016-03-12T17:49:54.360Z,960.34
2016-03-12T17:50:54.363Z,960.35
2016-03-12T17:51:54.382Z,960.34
2016-03-12T17:52:54.384Z,960.34
2016-03-12T17:53:54.401Z,960.35
2016-03-12T17:54:54.436Z,960.39
2016-03-12T17:55:54.454Z,960.38
2016-03-12T17:56:54.440Z,960.39
2016-03-12T17:57:54.460Z,960.38
2016-03-12T17:58:54.478Z,960.4
2016-03-12T17:59:54.481Z,960.42
2016-03-12T18:00:54.499Z,960.43
2016-03-12T18:01:54.501Z,960.37
2016-03-12T18:02:54.520Z,960.4
2016-03-12T18:03:54.539Z,960.4
2016-03-12T18:04:54.541Z,960.4
2016-03-12T18:05:54.559Z,960.41
2016-03-12T18:06:54.578Z,960.42
2016-03-12T18:07:54.580Z,960.41
2016-03-12T18:08:54.584Z,960.45
2016-03-12T18:09:54.601Z,960.44
2016-03-12T18:10:54.619Z,960.44
2016-03-12T18:11:54.638Z,960.44
2016-03-12T18:12:54.641Z,960.43
2016-03-12T18:13:54.658Z,960.49
2016-03-12T18:14:54.677Z,960.48
2016-03-12T18:15:54.680Z,960.45
2016-03-12T18:16:54.699Z,960.46
2016-03-12T18:17:54.716Z,960.54
2016-03-12T18:18:54.719Z,960.48
2016-03-12T18:19:54.738Z,960.49
2016-03-12T18:20:54.772Z,960.51
2016-03-12T18:21:54.758Z,960.51
2016-03-12T18:22:54.761Z,960.54
2016-03-12T18:23:54.779Z,960.53
2016-03-12T18:24:54.813Z,960.54
2016-03-12T18:25:54.801Z,960.56
2016-03-12T18:26:54.819Z,960.53
2016-03-12T18:27:54.821Z,960.56
2016-03-12T18:28:54.840Z,960.59
2016-03-12T18:29:54.858Z,960.55
2016-03-12T18:30:54.863Z,960.6
2016-03-12T18:31:54.881Z,960.58
2016-03-12T18:32:54.884Z,960.63
2016-03-12T18:33:54.902Z,960.58
2016-03-12T18:34:54.920Z,960.65
2016-03-12T18:35:54.939Z,960.62
2016-03-12T18:36:54.942Z,960.64
2016-03-12T18:37:54.960Z,960.59
2016-03-12T18:38:54.962Z,960.62
2016-03-12T18:39:54.981Z,960.64
2016-03-12T18:40:54.999Z,960.64
2016-03-12T18:41:55.002Z,960.68
2016-03-12T18:42:55.021Z,960.68
2016-03-12T18:43:55.023Z,960.67
2016-03-12T18:44:55.041Z,960.68
2016-03-12T18:45:55.075Z,960.68
2016-03-12T18:46:55.062Z,960.69
2016-03-12T18:47:55.080Z,960.69
2016-03-12T18:48:55.083Z,960.74
2016-03-12T18:49:55.101Z,960.74
2016-03-12T18:50:55.105Z,960.77
2016-03-12T18:51:55.123Z,960.71
2016-03-12T18:52:55.141Z,960.72
2016-03-12T18:53:55.143Z,960.72
2016-03-12T18:54:55.162Z,960.79
2016-03-12T18:55:55.165Z,960.77
2016-03-12T18:56:55.184Z,960.76
2016-03-12T18:57:55.186Z,960.81
2016-03-12T18:58:55.203Z,960.82
2016-03-12T18:59:55.222Z,960.8
2016-03-12T19:00:55.225Z,960.83
2016-03-12T19:01:55.243Z,960.82
2016-03-12T19:02:55.246Z,960.83
2016-03-12T19:03:55.264Z,960.8
2016-03-12T19:04:55.283Z,960.81
2016-03-12T19:05:55.285Z,960.84
2016-03-12T19:06:55.303Z,960.81
2016-03-12T19:07:55.322Z,960.84
2016-03-12T19:08:55.325Z,960.83
2016-03-12T19:09:55.343Z,960.84
2016-03-12T19:10:55.346Z,960.81
2016-03-12T19:11:55.364Z,960.86
2016-03-12T19:12:55.383Z,960.88
2016-03-12T19:13:55.385Z,960.87
2016-03-12T19:14:55.403Z,960.87
2016-03-12T19:15:55.406Z,960.89
2016-03-12T19:16:55.425Z,960.92
2016-03-12T19:17:55.443Z,960.97
2016-03-12T19:18:55.446Z,960.95
2016-03-12T19:19:55.463Z,960.93
2016-03-12T19:20:55.466Z,960.94
2016-03-12T19:21:55.500Z,960.94
2016-03-12T19:22:55.487Z,960.93
2016-03-12T19:23:55.506Z,960.92
2016-03-12T19:24:55.509Z,960.91
2016-03-12T19:25:55.527Z,960.93
2016-03-12T19:26:55.545Z,960.97
2016-03-12T19:27:55.548Z,960.93
2016-03-12T19:28:55.566Z,960.95
2016-03-12T19:29:55.584Z,960.95
2016-03-12T19:30:55.587Z,960.93
2016-03-12T19:31:55.606Z,960.93
2016-03-12T19:32:55.608Z,960.97
2016-03-12T19:33:55.626Z,960.93
2016-03-12T19:34:55.629Z,960.95
2016-03-12T19:35:55.647Z,960.98
2016-03-12T19:36:55.650Z,960.97
2016-03-12T19:37:55.669Z,960.96
2016-03-12T19:38:55.686Z,960.92
2016-03-12T19:39:55.689Z,960.97
2016-03-12T19:40:55.708Z,960.96
2016-03-12T19:41:55.710Z,960.92
2016-03-12T19:42:55.728Z,960.97
2016-03-12T19:43:55.747Z,960.95
2016-03-12T19:44:55.750Z,961.02
2016-03-12T19:45:55.752Z,961
2016-03-12T19:46:55.771Z,961
2016-03-12T19:47:55.789Z,960.99
2016-03-12T19:48:55.791Z,961.03
2016-03-12T19:49:55.826Z,961
2016-03-12T19:50:55.829Z,961
2016-03-12T19:51:55.831Z,961.05
2016-03-12T19:52:55.849Z,961
2016-03-12T19:53:55.852Z,960.99
2016-03-12T19:54:55.870Z,961
2016-03-12T19:55:55.874Z,961.01
2016-03-12T19:56:55.892Z,960.97
2016-03-12T19:57:55.910Z,960.98
2016-03-12T19:58:55.913Z,961.07
2016-03-12T19:59:55.931Z,961.06
2016-03-12T20:00:55.934Z,961
2016-03-12T20:01:55.951Z,961.03
2016-03-12T20:02:55.954Z,961.06
2016-03-12T20:03:55.989Z,961.04
2016-03-12T20:04:55.992Z,961.01
2016-03-12T20:05:55.995Z,961.04
2016-03-12T20:06:56.001Z,961.01
2016-03-12T20:07:56.020Z,961
2016-03-12T20:08:56.023Z,961.04
2016-03-12T20:09:56.041Z,961.05
2016-03-12T20:10:56.059Z,961.08
2016-03-12T20:11:56.061Z,961.06
2016-03-12T20:12:56.080Z,961.06
2016-03-12T20:13:56.083Z,961.05
2016-03-12T20:14:56.102Z,961.01
2016-03-12T20:15:56.105Z,960.98
2016-03-12T20:16:56.122Z,961.06
2016-03-12T20:17:56.125Z,961.04
2016-03-12T20:18:56.143Z,961.02
2016-03-12T20:19:56.161Z,961.05
2016-03-12T20:20:56.163Z,961.03
2016-03-12T20:21:56.183Z,961.08
2016-03-12T20:22:56.185Z,961.11
2016-03-12T20:23:56.204Z,961.03
2016-03-12T20:24:56.207Z,961.08
2016-03-12T20:25:56.225Z,961.09
2016-03-12T20:26:56.227Z,961.07
2016-03-12T20:27:56.246Z,961.1
2016-03-12T20:28:56.264Z,961.11
2016-03-12T20:29:56.267Z,961.08
2016-03-12T20:30:56.284Z,961.11
2016-03-12T20:31:56.287Z,961.06
2016-03-12T20:32:56.321Z,961.05
2016-03-12T20:33:56.323Z,961.08
2016-03-12T20:34:56.326Z,961.09
2016-03-12T20:35:56.345Z,961.07
2016-03-12T20:36:56.348Z,961.08
2016-03-12T20:37:56.366Z,961.02
2016-03-12T20:38:56.369Z,961.03
2016-03-12T20:39:56.386Z,961.02
2016-03-12T20:40:56.390Z,961.12
2016-03-12T20:41:56.409Z,961.04
2016-03-12T20:42:56.411Z,961.05
2016-03-12T20:43:56.430Z,961.03
2016-03-12T20:44:56.447Z,961.04
2016-03-12T20:45:56.450Z,961.04
2016-03-12T20:46:56.468Z,961.03
2016-03-12T20:47:56.486Z,961.01
2016-03-12T20:48:56.489Z,961.04
2016-03-12T20:49:56.507Z,961.03
2016-03-12T20:50:56.510Z,961.04
2016-03-12T20:51:56.530Z,961.05
2016-03-12T20:52:56.547Z,961.01
2016-03-12T20:53:56.550Z,960.99
2016-03-12T20:54:56.552Z,960.98
2016-03-12T20:55:56.571Z,960.99
2016-03-12T20:56:56.573Z,961
2016-03-12T20:57:56.592Z,960.95
2016-03-12T20:58:56.610Z,960.97
2016-03-12T20:59:56.613Z,960.98
2016-03-12T21:00:56.647Z,960.98
2016-03-12T21:01:56.649Z,960.99
2016-03-12T21:02:56.652Z,961.03
2016-03-12T21:03:56.654Z,960.97
2016-03-12T21:04:56.673Z,961
2016-03-12T21:05:56.692Z,961.02
2016-03-12T21:06:56.694Z,961.01
2016-03-12T21:07:56.713Z,961
2016-03-12T21:08:56.715Z,961
2016-03-12T21:09:56.717Z,961.04
2016-03-12T21:10:56.753Z,961
2016-03-12T21:11:56.755Z,960.98
2016-03-12T21:12:56.758Z,960.95
2016-03-12T21:13:56.775Z,960.97
2016-03-12T21:14:56.794Z,960.95
2016-03-12T21:15:56.797Z,960.95
2016-03-12T21:16:56.814Z,960.93
2016-03-12T21:17:56.817Z,960.95
2016-03-12T21:18:56.836Z,960.95
2016-03-12T21:19:56.839Z,960.94
2016-03-12T21:20:56.857Z,960.94
2016-03-12T21:21:56.875Z,960.92
2016-03-12T21:22:56.878Z,960.94
2016-03-12T21:23:56.880Z,960.94
2016-03-12T21:24:56.899Z,960.9
2016-03-12T21:25:56.917Z,960.93
2016-03-12T21:26:56.921Z,960.96
2016-03-12T21:27:56.938Z,960.94
2016-03-12T21:28:56.957Z,960.95
2016-03-12T21:29:56.959Z,960.98
2016-03-12T21:30:56.962Z,960.95
2016-03-12T21:31:56.980Z,960.92
2016-03-12T21:32:56.999Z,960.91
2016-03-12T21:33:57.001Z,960.93
2016-03-12T21:34:57.020Z,960.92
2016-03-12T21:35:57.022Z,960.97
2016-03-12T21:36:57.040Z,960.99
2016-03-12T21:37:57.043Z,960.98
2016-03-12T21:38:57.062Z,960.94
2016-03-12T21:39:57.064Z,960.98
2016-03-12T21:40:57.083Z,960.98
2016-03-12T21:41:57.101Z,960.95
2016-03-12T21:42:57.103Z,960.97
2016-03-12T21:43:57.106Z,960.97
2016-03-12T21:44:57.125Z,960.94
2016-03-12T21:45:57.143Z,960.94
2016-03-12T21:46:57.145Z,960.97
2016-03-12T21:47:57.164Z,960.92
2016-03-12T21:48:57.167Z,960.9
2016-03-12T21:49:57.185Z,960.94
2016-03-12T21:50:57.203Z,960.93
2016-03-12T21:51:57.206Z,960.94
2016-03-12T21:52:57.224Z,960.92
2016-03-12T21:53:57.227Z,960.96
2016-03-12T21:54:57.245Z,960.9
2016-03-12T21:55:57.248Z,960.93
2016-03-12T21:56:57.266Z,960.92
2016-03-12T21:57:57.285Z,960.93
2016-03-12T21:58:57.288Z,960.9
2016-03-12T21:59:57.290Z,960.93
2016-03-12T22:00:57.308Z,960.9
2016-03-12T22:01:57.326Z,960.9
2016-03-12T22:02:57.329Z,960.9
2016-03-12T22:03:57.347Z,960.9
2016-03-12T22:04:57.351Z,960.91
2016-03-12T22:05:57.369Z,960.88
2016-03-12T22:06:57.392Z,960.88
2016-03-12T22:07:57.395Z,960.88
2016-03-12T22:08:57.398Z,960.88
2016-03-12T22:09:57.415Z,960.85
2016-03-12T22:10:57.418Z,960.85
2016-03-12T22:11:57.436Z,960.84
2016-03-12T22:12:57.439Z,960.8
2016-03-12T22:13:57.457Z,960.89
2016-03-12T22:14:57.476Z,960.88
2016-03-12T22:15:57.478Z,960.87
2016-03-12T22:16:57.497Z,960.87
2016-03-12T22:17:57.500Z,960.89
2016-03-12T22:18:57.533Z,960.9
2016-03-12T22:19:57.521Z,960.86
2016-03-12T22:20:57.538Z,960.9
2016-03-12T22:21:57.557Z,960.85
2016-03-12T22:22:57.560Z,960.91
2016-03-12T22:23:57.578Z,960.9
2016-03-12T22:24:57.580Z,960.86
2016-03-12T22:25:57.599Z,960.91
2016-03-12T22:26:57.602Z,960.88
2016-03-12T22:27:57.621Z,960.89
2016-03-12T22:28:57.623Z,960.85
2016-03-12T22:29:57.641Z,960.84
2016-03-12T22:30:57.644Z,960.82
2016-03-12T22:31:57.662Z,960.84
2016-03-12T22:32:57.680Z,960.82
2016-03-12T22:33:57.684Z,960.84
2016-03-12T22:34:57.702Z,960.79
2016-03-12T22:35:57.704Z,960.81
2016-03-12T22:36:57.723Z,960.77
2016-03-12T22:37:57.725Z,960.77
2016-03-12T22:38:57.743Z,960.76
2016-03-12T22:39:57.761Z,960.77
2016-03-12T22:40:57.764Z,960.73
2016-03-12T22:41:57.767Z,960.75
2016-03-12T22:42:57.785Z,960.7
2016-03-12T22:43:57.788Z,960.74
2016-03-12T22:44:57.807Z,960.74
2016-03-12T22:45:57.825Z,960.78
2016-03-12T22:46:57.828Z,960.72
2016-03-12T22:47:57.846Z,960.75
2016-03-12T22:48:57.849Z,960.75
2016-03-12T22:49:57.866Z,960.75
2016-03-12T22:50:57.869Z,960.71
2016-03-12T22:51:57.888Z,960.75
2016-03-12T22:52:57.891Z,960.72
2016-03-12T22:53:57.925Z,960.74
2016-03-12T22:54:57.911Z,960.73
2016-03-12T22:55:57.930Z,960.76
2016-03-12T22:56:57.932Z,960.74
2016-03-12T22:57:57.951Z,960.72
2016-03-12T22:58:57.968Z,960.7
2016-03-12T22:59:57.971Z,960.7
2016-03-12T23:00:57.991Z,960.67
2016-03-12T23:01:57.993Z,960.71
2016-03-12T23:02:58.012Z,960.76
2016-03-12T23:03:58.014Z,960.7
2016-03-12T23:04:58.032Z,960.73
2016-03-12T23:05:58.051Z,960.73
2016-03-12T23:06:58.054Z,960.7
2016-03-12T23:07:58.071Z,960.73
2016-03-12T23:08:58.090Z,960.75
2016-03-12T23:09:58.092Z,960.69
2016-03-12T23:10:58.095Z,960.74
2016-03-12T23:11:58.114Z,960.72
2016-03-12T23:12:58.116Z,960.74
2016-03-12T23:13:58.134Z,960.75
2016-03-12T23:14:58.137Z,960.74
2016-03-12T23:15:58.155Z,960.76
2016-03-12T23:16:58.174Z,960.74
2016-03-12T23:17:58.177Z,960.76
2016-03-12T23:18:58.179Z,960.72
2016-03-12T23:19:58.197Z,960.7
2016-03-12T23:20:58.200Z,960.72
2016-03-12T23:21:58.219Z,960.71
2016-03-12T23:22:58.222Z,960.75
2016-03-12T23:23:58.239Z,960.69
2016-03-12T23:24:58.242Z,960.69
2016-03-12T23:25:58.261Z,960.73
2016-03-12T23:26:58.279Z,960.69
2016-03-12T23:27:58.281Z,960.73
2016-03-12T23:28:58.299Z,960.72
2016-03-12T23:29:58.293Z,960.73
2016-03-12T23:30:58.301Z,960.73
2016-03-12T23:31:58.310Z,960.69
2016-03-12T23:32:58.310Z,960.75
2016-03-12T23:33:58.318Z,960.73
2016-03-12T23:34:58.311Z,960.73
2016-03-12T23:35:58.325Z,960.69
2016-03-12T23:36:58.324Z,960.72
2016-03-12T23:37:58.337Z,960.68
2016-03-12T23:38:58.336Z,960.67
2016-03-12T23:39:58.351Z,960.7
2016-03-12T23:40:58.353Z,960.7
2016-03-12T23:41:58.370Z,960.7
2016-03-12T23:42:58.372Z,960.7
2016-03-12T23:43:58.405Z,960.69
2016-03-12T23:44:58.390Z,960.71
2016-03-12T23:45:58.408Z,960.73
2016-03-12T23:46:58.427Z,960.71
2016-03-12T23:47:58.429Z,960.72
2016-03-12T23:48:58.446Z,960.7
2016-03-12T23:49:58.448Z,960.7
2016-03-12T23:50:58.467Z,960.73
2016-03-12T23:51:58.484Z,960.78
2016-03-12T23:52:58.487Z,960.74
2016-03-12T23:53:58.505Z,960.71
2016-03-12T23:54:58.507Z,960.73
2016-03-12T23:55:58.526Z,960.75
2016-03-12T23:56:58.528Z,960.76
2016-03-12T23:57:58.671Z,960.76
2016-03-12T23:58:58.549Z,960.77
2016-03-12T23:59:58.567Z,960.72
